createdAt,value
2022-12-11T00:01:36.328Z,96625.78
2022-12-11T00:04:05.573Z,96626.56
2022-12-11T00:06:36.320Z,96628.19
2022-12-11T00:09:05.765Z,96617.84
2022-12-11T00:11:35.072Z,96617.84
2022-12-11T00:14:05.089Z,96629.34
2022-12-11T00:16:34.180Z,96630.53
2022-12-11T00:19:03.300Z,96626.19
2022-12-11T00:21:32.433Z,96623.34
2022-12-11T00:24:02.871Z,96635.25
2022-12-11T00:26:32.027Z,96632.84
2022-12-11T00:29:01.143Z,96624.13
2022-12-11T00:31:30.414Z,96632.28
2022-12-11T00:33:59.512Z,96635.94
2022-12-11T00:36:29.118Z,96635.06
2022-12-11T00:38:58.318Z,96642.56
2022-12-11T00:41:28.807Z,96649.31
2022-12-11T00:44:00.889Z,96654.75
2022-12-11T00:46:30.033Z,96657.69
2022-12-11T00:48:59.617Z,96665.16
2022-12-11T00:51:29.111Z,96669.16
2022-12-11T00:53:58.181Z,96657.25
2022-12-11T00:56:28.623Z,96664.41
2022-12-11T00:58:58.194Z,96669.19
2022-12-11T01:01:27.328Z,96665.63
2022-12-11T01:03:56.422Z,96671.13
2022-12-11T01:06:27.228Z,96683.41
2022-12-11T01:09:10.516Z,96684.91
2022-12-11T01:11:42.301Z,96680.09
2022-12-11T01:14:12.839Z,96680.13
2022-12-11T01:16:41.939Z,96690.00
2022-12-11T01:19:11.107Z,96689.25
2022-12-11T01:21:41.200Z,96696.88
2022-12-11T01:24:10.392Z,96703.94
2022-12-11T01:26:40.842Z,96704.75
2022-12-11T01:29:10.075Z,96713.50
2022-12-11T01:31:39.301Z,96715.91
2022-12-11T01:34:08.388Z,96713.53
2022-12-11T01:36:37.646Z,96709.59
2022-12-11T01:39:06.865Z,96710.78
2022-12-11T01:41:35.955Z,96724.16
2022-12-11T01:44:29.058Z,96723.00
2022-12-11T01:46:58.350Z,96723.72
2022-12-11T01:49:29.680Z,96730.91
2022-12-11T01:52:03.995Z,96727.84
2022-12-11T01:54:33.728Z,96724.69
2022-12-11T01:57:07.113Z,96745.28
2022-12-11T01:59:42.367Z,96738.16
2022-12-11T02:02:19.296Z,96733.06
2022-12-11T02:04:49.664Z,96729.56
2022-12-11T02:07:18.942Z,96725.56
2022-12-11T02:09:49.651Z,96726.34
2022-12-11T02:12:27.516Z,96732.66
2022-12-11T02:15:08.639Z,96747.66
2022-12-11T02:17:45.484Z,96740.91
2022-12-11T02:20:24.181Z,96738.16
2022-12-11T02:23:39.418Z,96733.41
2022-12-11T02:26:26.346Z,96726.28
2022-12-11T02:29:00.610Z,96720.75
2022-12-11T02:31:37.864Z,96724.56
2022-12-11T02:34:13.057Z,96719.78
2022-12-11T02:36:46.475Z,96710.97
2022-12-11T02:39:18.974Z,96706.66
2022-12-11T02:41:52.513Z,96709.53
2022-12-11T02:44:29.171Z,96702.84
2022-12-11T02:47:00.574Z,96705.31
2022-12-11T02:49:30.241Z,96707.63
2022-12-11T02:52:03.078Z,96702.09
2022-12-11T02:54:37.105Z,96715.97
2022-12-11T02:57:12.717Z,96706.75
2022-12-11T02:59:46.554Z,96714.25
2022-12-11T03:02:18.895Z,96709.84
2022-12-11T03:04:49.204Z,96712.28
2022-12-11T03:07:24.586Z,96698.81
2022-12-11T03:09:54.371Z,96703.25
2022-12-11T03:12:29.147Z,96703.66
2022-12-11T03:15:01.525Z,96710.72
2022-12-11T03:17:39.835Z,96709.13
2022-12-11T03:20:17.728Z,96703.56
2022-12-11T03:22:54.364Z,96701.25
2022-12-11T03:28:12.751Z,96699.78
2022-12-11T03:30:45.263Z,96703.88
2022-12-11T03:33:22.428Z,96708.59
2022-12-11T03:35:57.128Z,96706.13
2022-12-11T03:38:32.421Z,96711.69
2022-12-11T03:41:05.424Z,96706.91
2022-12-11T03:43:36.467Z,96693.81
2022-12-11T03:46:10.019Z,96696.69
2022-12-11T03:48:41.881Z,96702.94
2022-12-11T03:51:11.096Z,96700.56
2022-12-11T03:53:40.752Z,96694.31
2022-12-11T03:56:13.443Z,96702.25
2022-12-11T03:58:42.709Z,96693.53
2022-12-11T04:01:13.318Z,96689.63
2022-12-11T04:03:43.514Z,96689.66
2022-12-11T04:06:12.604Z,96676.97
2022-12-11T04:08:41.814Z,96675.28
2022-12-11T04:11:29.374Z,96682.09
2022-12-11T04:14:15.865Z,96671.31
2022-12-11T04:16:46.415Z,96677.75
2022-12-11T04:19:33.487Z,96681.00
2022-12-11T04:22:20.011Z,96684.63
2022-12-11T04:24:50.385Z,96678.31
2022-12-11T04:27:34.747Z,96685.91
2022-12-11T04:30:04.449Z,96685.94
2022-12-11T04:32:35.870Z,96698.25
2022-12-11T04:35:07.305Z,96697.88
2022-12-11T04:37:36.809Z,96700.34
2022-12-11T04:40:12.201Z,96705.13
2022-12-11T04:42:41.688Z,96713.03
2022-12-11T04:45:12.963Z,96717.03
2022-12-11T04:47:43.993Z,96718.63
2022-12-11T04:50:15.733Z,96721.84
2022-12-11T04:52:45.476Z,96714.72
2022-12-11T04:55:14.981Z,96708.81
2022-12-11T04:57:44.033Z,96718.75
2022-12-11T05:00:14.813Z,96720.34
2022-12-11T05:02:45.268Z,96722.72
2022-12-11T05:05:14.659Z,96721.94
2022-12-11T05:07:43.943Z,96723.06
2022-12-11T05:10:13.098Z,96722.66
2022-12-11T05:12:42.224Z,96719.50
2022-12-11T05:15:12.285Z,96725.06
2022-12-11T05:17:41.605Z,96723.50
2022-12-11T05:20:13.161Z,96725.84
2022-12-11T05:22:42.409Z,96725.44
2022-12-11T05:25:11.679Z,96722.28
2022-12-11T05:27:40.933Z,96726.63
2022-12-11T05:30:11.675Z,96733.72
2022-12-11T05:32:40.697Z,96740.06
2022-12-11T05:35:11.887Z,96739.28
2022-12-11T05:37:41.352Z,96743.25
2022-12-11T05:40:13.082Z,96755.13
2022-12-11T05:42:42.197Z,96751.97
2022-12-11T05:45:12.871Z,96753.56
2022-12-11T05:47:42.107Z,96769.03
2022-12-11T05:50:12.817Z,96754.34
2022-12-11T05:52:41.928Z,96752.75
2022-12-11T05:55:11.779Z,96762.28
2022-12-11T05:57:41.151Z,96761.47
2022-12-11T06:00:13.688Z,96776.47
2022-12-11T06:02:42.922Z,96774.94
2022-12-11T06:05:13.730Z,96765.44
2022-12-11T06:07:42.929Z,96767.75
2022-12-11T06:10:12.164Z,96764.19
2022-12-11T06:12:41.338Z,96769.34
2022-12-11T06:15:11.427Z,96775.69
2022-12-11T06:17:40.799Z,96771.72
2022-12-11T06:20:10.758Z,96778.03
2022-12-11T06:22:41.524Z,96770.09
2022-12-11T06:25:11.420Z,96778.75
2022-12-11T06:27:41.300Z,96781.91
2022-12-11T06:30:12.508Z,96779.56
2022-12-11T06:32:42.156Z,96778.38
2022-12-11T06:35:12.248Z,96793.88
2022-12-11T06:37:43.186Z,96793.91
2022-12-11T06:40:13.431Z,96804.91
2022-12-11T06:42:42.609Z,96812.84
2022-12-11T06:45:13.052Z,96816.81
2022-12-11T06:47:42.296Z,96813.63
2022-12-11T06:50:11.695Z,96824.72
2022-12-11T06:52:42.143Z,96821.09
2022-12-11T06:55:11.545Z,96831.38
2022-12-11T06:57:40.868Z,96829.72
2022-12-11T07:00:11.985Z,96837.72
2022-12-11T07:02:41.296Z,96850.91
2022-12-11T07:05:11.284Z,96855.69
2022-12-11T07:07:42.538Z,96857.34
2022-12-11T07:10:12.046Z,96860.53
2022-12-11T07:12:41.736Z,96860.53
2022-12-11T07:15:12.640Z,96856.19
2022-12-11T07:17:44.504Z,96849.88
2022-12-11T07:20:14.945Z,96845.53
2022-12-11T07:22:46.755Z,96838.41
2022-12-11T07:25:16.855Z,96841.56
2022-12-11T07:27:46.179Z,96846.28
2022-12-11T07:30:16.009Z,96847.88
2022-12-11T07:32:45.428Z,96849.44
2022-12-11T07:35:14.698Z,96847.81
2022-12-11T07:37:46.876Z,96851.00
2022-12-11T07:40:16.376Z,96856.53
2022-12-11T07:42:46.402Z,96858.88
2022-12-11T07:45:15.927Z,96865.97
2022-12-11T07:47:45.501Z,96878.28
2022-12-11T07:50:15.166Z,96886.59
2022-12-11T07:52:46.310Z,96884.94
2022-12-11T07:55:15.753Z,96873.03
2022-12-11T07:57:44.848Z,96881.75
2022-12-11T08:00:15.060Z,96879.34
2022-12-11T08:02:44.301Z,96883.28
2022-12-11T08:05:13.809Z,96883.22
2022-12-11T08:07:43.321Z,96884.72
2022-12-11T08:10:15.064Z,96900.19
2022-12-11T08:12:44.226Z,96898.91
2022-12-11T08:15:13.793Z,96900.50
2022-12-11T08:17:43.091Z,96896.47
2022-12-11T08:20:12.436Z,96895.66
2022-12-11T08:22:41.568Z,96900.84
2022-12-11T08:25:11.325Z,96891.59
2022-12-11T08:27:42.232Z,96889.97
2022-12-11T08:30:12.651Z,96894.63
2022-12-11T08:32:41.864Z,96898.53
2022-12-11T08:35:11.700Z,96905.66
2022-12-11T08:37:41.356Z,96901.97
2022-12-11T08:40:12.465Z,96895.16
2022-12-11T08:42:43.260Z,96898.19
2022-12-11T08:45:13.077Z,96901.34
2022-12-11T08:47:43.185Z,96911.66
2022-12-11T08:50:12.327Z,96907.69
2022-12-11T08:52:41.524Z,96906.84
2022-12-11T08:55:11.402Z,96910.63
2022-12-11T08:57:43.311Z,96923.31
2022-12-11T09:00:15.319Z,96921.81
2022-12-11T09:02:44.613Z,96909.88
2022-12-11T09:05:14.037Z,96917.53
2022-12-11T09:07:43.196Z,96908.47
2022-12-11T09:10:12.543Z,96907.44
2022-12-11T09:12:43.071Z,96909.56
2022-12-11T09:15:13.340Z,96909.47
2022-12-11T09:17:42.598Z,96906.84
2022-12-11T09:20:12.816Z,96900.63
2022-12-11T09:22:42.970Z,96903.50
2022-12-11T09:25:12.482Z,96902.50
2022-12-11T09:27:43.362Z,96895.72
2022-12-11T09:30:13.591Z,96900.78
2022-12-11T09:32:42.845Z,96900.78
2022-12-11T09:35:12.812Z,96896.56
2022-12-11T09:37:42.204Z,96903.13
2022-12-11T09:40:13.127Z,96901.91
2022-12-11T09:42:55.453Z,96887.81
2022-12-11T09:45:24.788Z,96891.25
2022-12-11T09:47:57.567Z,96891.16
2022-12-11T09:50:33.092Z,96893.78
2022-12-11T09:53:14.276Z,96897.47
2022-12-11T09:55:51.526Z,96901.03
2022-12-11T09:58:30.554Z,96891.66
2022-12-11T10:01:05.422Z,96900.34
2022-12-11T10:03:56.872Z,96895.31
2022-12-11T10:06:34.303Z,96889.44
2022-12-11T10:09:12.655Z,96892.72
2022-12-11T10:12:07.471Z,96888.44
2022-12-11T10:14:56.293Z,96891.25
2022-12-11T10:17:33.459Z,96890.84
2022-12-11T10:20:19.075Z,96886.00
2022-12-11T10:22:49.835Z,96883.59
2022-12-11T10:25:25.505Z,96884.47
2022-12-11T10:27:55.258Z,96891.59
2022-12-11T10:30:32.956Z,96890.00
2022-12-11T10:33:16.058Z,96902.38
2022-12-11T10:35:49.521Z,96906.09
2022-12-11T10:38:25.037Z,96913.06
2022-12-11T10:40:58.428Z,96914.44
2022-12-11T10:43:36.630Z,96902.78
2022-12-11T10:46:15.252Z,96895.28
2022-12-11T10:48:49.055Z,96894.66
2022-12-11T10:51:18.729Z,96894.88
2022-12-11T10:53:52.865Z,96897.34
2022-12-11T10:56:28.584Z,96895.66
2022-12-11T10:58:59.196Z,96891.19
2022-12-11T11:01:32.838Z,96897.41
2022-12-11T11:04:07.518Z,96893.81
2022-12-11T11:06:36.614Z,96888.47
2022-12-11T11:09:06.023Z,96892.00
2022-12-11T11:11:39.573Z,96895.00
2022-12-11T11:14:16.699Z,96895.81
2022-12-11T11:16:49.432Z,96903.13
2022-12-11T11:19:25.778Z,96897.19
2022-12-11T11:21:58.839Z,96892.84
2022-12-11T11:24:34.700Z,96890.19
2022-12-11T11:27:13.884Z,96889.88
2022-12-11T11:29:47.646Z,96895.50
2022-12-11T11:32:24.914Z,96885.34
2022-12-11T11:34:54.224Z,96876.94
2022-12-11T11:37:34.138Z,96878.88
2022-12-11T11:40:12.712Z,96876.19
2022-12-11T11:42:48.645Z,96881.34
2022-12-11T11:45:21.856Z,96872.16
2022-12-11T11:48:11.441Z,96869.47
2022-12-11T11:50:46.221Z,96871.34
2022-12-11T11:53:24.387Z,96866.88
2022-12-11T11:56:04.695Z,96863.69
2022-12-11T11:58:41.439Z,96860.84
2022-12-11T12:01:16.422Z,96865.94
2022-12-11T12:03:48.803Z,96863.56
2022-12-11T12:06:50.560Z,96871.69
2022-12-11T12:09:37.232Z,96866.69
2022-12-11T12:12:34.298Z,96869.91
2022-12-11T12:15:19.375Z,96870.16
2022-12-11T12:17:56.137Z,96864.56
2022-12-11T12:20:44.426Z,96865.97
2022-12-11T12:23:49.212Z,96871.81
2022-12-11T12:26:27.482Z,96870.25
2022-12-11T12:29:13.819Z,96875.84
2022-12-11T12:32:04.402Z,96876.88
2022-12-11T12:34:50.366Z,96875.03
2022-12-11T12:37:35.948Z,96869.34
2022-12-11T12:40:18.778Z,96873.97
2022-12-11T12:42:56.790Z,96876.75
2022-12-11T12:45:36.125Z,96874.47
2022-12-11T12:48:05.494Z,96875.34
2022-12-11T12:50:41.664Z,96876.88
2022-12-11T12:53:18.888Z,96873.50
2022-12-11T12:55:49.326Z,96880.63
2022-12-11T12:58:29.752Z,96872.38
2022-12-11T13:01:10.211Z,96869.72
2022-12-11T13:03:55.392Z,96871.31
2022-12-11T13:06:38.083Z,96870.53
2022-12-11T13:09:21.366Z,96863.53
2022-12-11T13:11:54.609Z,96869.72
2022-12-11T13:14:31.945Z,96872.50
2022-12-11T13:17:23.548Z,96882.41
2022-12-11T13:20:10.528Z,96880.03
2022-12-11T13:22:58.945Z,96876.31
2022-12-11T13:25:36.262Z,96883.50
2022-12-11T13:28:23.199Z,96891.53
2022-12-11T13:31:04.926Z,96889.84
2022-12-11T13:33:40.091Z,96893.84
2022-12-11T13:36:32.656Z,96910.63
2022-12-11T13:39:11.031Z,96908.31
2022-12-11T13:41:45.918Z,96915.16
2022-12-11T13:44:22.910Z,96921.16
2022-12-11T13:46:54.204Z,96923.50
2022-12-11T13:49:27.053Z,96922.72
2022-12-11T13:51:59.480Z,96931.56
2022-12-11T13:54:30.507Z,96926.50
2022-12-11T13:57:13.868Z,96939.59
2022-12-11T13:59:44.979Z,96949.53
2022-12-11T14:02:20.715Z,96943.59
2022-12-11T14:04:53.263Z,96946.41
2022-12-11T14:07:29.406Z,96953.56
2022-12-11T14:19:38.047Z,96969.84
2022-12-11T14:40:21.794Z,96992.13
2022-12-11T14:52:45.400Z,97020.63
2022-12-11T14:55:23.576Z,97022.22
2022-12-11T15:02:31.054Z,97026.19
2022-12-11T15:05:12.898Z,97030.09
2022-12-11T15:07:45.120Z,97026.16
2022-12-11T15:55:35.122Z,97085.00
2022-12-11T15:58:09.326Z,97097.22
2022-12-11T16:00:40.732Z,97097.22
2022-12-11T16:03:13.627Z,97098.00
2022-12-11T16:05:43.232Z,97099.47
2022-12-11T16:08:16.210Z,97101.88
2022-12-11T16:10:48.604Z,97105.69
2022-12-11T16:13:17.751Z,97109.59
2022-12-11T16:15:50.912Z,97109.63
2022-12-11T16:18:24.096Z,97117.94
2022-12-11T16:20:53.900Z,97125.41
2022-12-11T16:23:23.301Z,97123.00
2022-12-11T16:31:35.934Z,97124.47
2022-12-11T16:34:06.271Z,97135.47
2022-12-11T16:36:35.285Z,97133.97
2022-12-11T16:39:04.740Z,97136.28
2022-12-11T16:41:34.331Z,97145.38
2022-12-11T16:44:03.852Z,97149.75
2022-12-11T16:46:32.968Z,97156.03
2022-12-11T16:49:02.247Z,97154.66
2022-12-11T16:51:32.636Z,97159.38
2022-12-11T16:54:01.850Z,97163.34
2022-12-11T16:56:30.988Z,97160.06
2022-12-11T16:59:02.831Z,97171.03
2022-12-11T17:01:36.354Z,97173.31
2022-12-11T17:04:06.186Z,97172.44
2022-12-11T17:06:37.759Z,97162.88
2022-12-11T17:09:08.059Z,97172.56
2022-12-11T17:11:39.758Z,97176.34
2022-12-11T17:14:12.522Z,97171.59
2022-12-11T17:16:42.217Z,97176.28
2022-12-11T17:19:12.349Z,97182.66
2022-12-11T17:21:47.013Z,97185.00
2022-12-11T17:24:19.318Z,97182.22
2022-12-11T17:26:48.317Z,97174.03
2022-12-11T17:29:17.321Z,97179.56
2022-12-11T17:31:47.028Z,97182.22
2022-12-11T17:34:16.952Z,97179.78
2022-12-11T17:36:47.633Z,97180.22
2022-12-11T17:39:16.662Z,97180.13
2022-12-11T17:41:45.562Z,97177.59
2022-12-11T17:44:15.774Z,97175.69
2022-12-11T17:46:44.785Z,97177.78
2022-12-11T17:49:13.824Z,97183.81
2022-12-11T17:51:42.860Z,97181.13
2022-12-11T17:54:14.082Z,97179.19
2022-12-11T17:56:43.058Z,97189.53
2022-12-11T17:59:12.054Z,97182.16
2022-12-11T18:01:41.135Z,97183.81
2022-12-11T18:04:10.332Z,97185.78
2022-12-11T18:06:39.306Z,97183.34
2022-12-11T18:09:08.990Z,97186.75
2022-12-11T18:11:39.682Z,97191.25
2022-12-11T18:14:13.724Z,97187.56
2022-12-11T18:16:45.661Z,97188.19
2022-12-11T18:19:15.737Z,97178.31
2022-12-11T18:21:46.230Z,97189.78
2022-12-11T18:24:15.715Z,97183.56
2022-12-11T18:26:46.650Z,97191.91
2022-12-11T18:29:15.864Z,97189.91
2022-12-11T18:31:45.101Z,97192.28
2022-12-11T18:34:14.542Z,97182.00
2022-12-11T18:36:43.587Z,97185.59
2022-12-11T18:39:12.752Z,97189.41
2022-12-11T18:41:42.504Z,97189.56
2022-12-11T18:44:13.238Z,97175.31
2022-12-11T18:46:43.779Z,97183.50
2022-12-11T18:49:13.102Z,97185.38
2022-12-11T18:51:42.988Z,97185.53
2022-12-11T18:54:12.782Z,97185.16
2022-12-11T18:56:43.018Z,97183.66
2022-12-11T18:59:15.041Z,97186.00
2022-12-11T19:01:44.096Z,97187.94
2022-12-11T19:04:13.430Z,97193.09
2022-12-11T19:06:42.685Z,97192.22
2022-12-11T19:09:14.187Z,97201.75
2022-12-11T19:11:44.211Z,97194.56
2022-12-11T19:14:15.578Z,97198.66
2022-12-11T19:16:45.694Z,97193.72
2022-12-11T19:19:22.715Z,97195.31
2022-12-11T19:21:51.916Z,97189.72
2022-12-11T19:24:24.440Z,97193.38
2022-12-11T19:26:54.003Z,97192.00
2022-12-11T19:29:29.484Z,97191.28
2022-12-11T19:31:59.064Z,97189.63
2022-12-11T19:34:30.185Z,97191.81
2022-12-11T19:36:59.278Z,97182.25
2022-12-11T19:39:28.577Z,97183.66
2022-12-11T19:41:57.745Z,97186.63
2022-12-11T19:44:28.385Z,97181.47
2022-12-11T19:47:00.545Z,97175.94
2022-12-11T19:49:30.286Z,97174.63
2022-12-11T19:51:59.417Z,97173.78
2022-12-11T19:54:28.832Z,97169.91
2022-12-11T19:56:57.994Z,97172.31
2022-12-11T19:59:28.869Z,97162.91
2022-12-11T20:01:58.001Z,97161.47
2022-12-11T20:04:27.478Z,97160.28
2022-12-11T20:06:56.770Z,97155.56
2022-12-11T20:09:27.767Z,97163.47
2022-12-11T20:11:57.255Z,97163.00
2022-12-11T20:14:29.638Z,97164.81
2022-12-11T20:17:15.514Z,97161.63
2022-12-11T20:19:44.861Z,97149.84
2022-12-11T20:22:17.189Z,97159.25
2022-12-11T20:24:47.020Z,97168.16
2022-12-11T20:27:16.708Z,97167.72
2022-12-11T20:29:47.336Z,97172.31
2022-12-11T20:32:19.693Z,97171.50
2022-12-11T20:34:49.027Z,97170.66
2022-12-11T20:37:19.020Z,97169.75
2022-12-11T20:39:48.209Z,97166.47
2022-12-11T20:42:17.369Z,97173.44
2022-12-11T20:44:49.403Z,97172.72
2022-12-11T20:47:19.846Z,97178.00
2022-12-11T20:49:51.294Z,97175.84
2022-12-11T20:52:21.264Z,97189.78
2022-12-11T20:54:50.531Z,97191.41
2022-12-11T20:57:20.112Z,97192.97
2022-12-11T20:59:50.767Z,97194.56
2022-12-11T21:02:19.993Z,97197.72
2022-12-11T21:04:49.535Z,97200.84
2022-12-11T21:07:18.951Z,97204.09
2022-12-11T21:09:48.102Z,97194.66
2022-12-11T21:12:17.282Z,97189.50
2022-12-11T21:14:46.343Z,97204.09
2022-12-11T21:17:17.118Z,97207.28
2022-12-11T21:19:46.416Z,97212.94
2022-12-11T21:22:15.756Z,97208.66
2022-12-11T21:24:44.899Z,97212.66
2022-12-11T21:27:14.218Z,97215.41
2022-12-11T21:29:43.471Z,97219.25
2022-12-11T21:32:13.840Z,97213.25
2022-12-11T21:34:44.666Z,97214.28
2022-12-11T21:37:14.254Z,97219.69
2022-12-11T21:39:43.501Z,97217.22
2022-12-11T21:42:12.682Z,97217.09
2022-12-11T21:45:51.801Z,97217.03
2022-12-11T21:47:31.287Z,97221.63
2022-12-11T21:50:01.905Z,97228.66
2022-12-11T21:52:31.218Z,97224.78
2022-12-11T21:55:00.487Z,97215.63
2022-12-11T21:57:30.175Z,97225.34
2022-12-11T21:59:59.646Z,97226.44
2022-12-11T22:02:29.151Z,97225.44
2022-12-11T22:05:02.681Z,97220.34
2022-12-11T22:07:32.521Z,97221.16
2022-12-11T22:10:01.437Z,97230.66
2022-12-11T22:12:31.179Z,97233.97
2022-12-11T22:15:00.419Z,97236.69
2022-12-11T22:17:29.770Z,97239.88
2022-12-11T22:19:58.937Z,97240.03
2022-12-11T22:22:29.699Z,97241.69
2022-12-11T22:24:58.776Z,97244.06
2022-12-11T22:27:27.937Z,97233.03
2022-12-11T22:29:57.211Z,97232.56
2022-12-11T22:32:27.551Z,97243.81
2022-12-11T22:34:57.841Z,97238.94
2022-12-11T22:37:26.954Z,97245.19
2022-12-11T22:39:57.547Z,97241.00
2022-12-11T22:42:26.561Z,97249.16
2022-12-11T22:44:56.078Z,97243.09
2022-12-11T22:47:25.196Z,97240.75
2022-12-11T22:54:27.138Z,97238.13
2022-12-11T22:56:57.832Z,97241.75
2022-12-11T22:59:28.443Z,97248.19
2022-12-11T23:02:00.929Z,97241.69
2022-12-11T23:04:29.930Z,97247.13
2022-12-11T23:06:59.719Z,97241.03
2022-12-11T23:09:28.744Z,97240.16
2022-12-11T23:11:59.609Z,97236.09
2022-12-11T23:14:29.184Z,97235.88
2022-12-11T23:16:58.433Z,97235.19
2022-12-11T23:19:27.855Z,97230.09
2022-12-11T23:21:57.443Z,97234.63
2022-12-11T23:24:26.415Z,97229.84
2022-12-11T23:26:55.494Z,97235.75
2022-12-11T23:29:25.800Z,97231.69
2022-12-11T23:31:54.810Z,97235.50
2022-12-11T23:34:23.786Z,97233.53
2022-12-11T23:36:52.802Z,97226.44
2022-12-11T23:39:21.788Z,97235.06
2022-12-11T23:41:50.761Z,97241.84
2022-12-11T23:44:19.745Z,97238.31
2022-12-11T23:46:50.213Z,97241.25
2022-12-11T23:49:19.131Z,97241.38
2022-12-11T23:51:48.109Z,97244.22
2022-12-11T23:54:17.386Z,97239.44
2022-12-11T23:56:46.384Z,97254.38
2022-12-11T23:59:16.391Z,97255.66
